Villas del Este, Puerto Rico
Current Conditions -  °F | °C
As of 10:56 PM on Wednesday 22 Oct 2014 (Local Time) from TJSJ Reporting Station
Scattered Clouds Scattered Clouds  
Wind Chill: 82°   Ceiling: Unl
Heat Index: 87°   Visibility: 10mi
Dew Point: 73°   Wind: 3mph
Humidity: 74%   Direction: 140°SE
Pressure: 29.96"   Gusts: NA
Location:  18.3754°N, 66.0577°W
Report Text: TJSJ 230256Z 14003KT 10SM FEW028 SCT055 28/23 A2996 RMK AO2 SLP145 T02780228 50008
Loading
Personal Weather Stations






























Interactive Weather Map
Tropical Storm Tracking
New forecast layout! Learn more

10-Day Weather Forecast

Advertisements
Track Severe Weather on mobile